sensor_id;sensor_type;location;lat;lon;timestamp;P1;durP1;ratioP1;P2;durP2;ratioP2
35558;SDS011;21661;50.794;-1.066;2022-11-09T00:02:05;22.08;;;3.17;;
35558;SDS011;21661;50.794;-1.066;2022-11-09T00:04:31;18.88;;;3.83;;
35558;SDS011;21661;50.794;-1.066;2022-11-09T00:06:56;17.65;;;3.53;;
35558;SDS011;21661;50.794;-1.066;2022-11-09T00:09:22;26.50;;;3.97;;
35558;SDS011;21661;50.794;-1.066;2022-11-09T00:11:47;25.58;;;3.78;;
35558;SDS011;21661;50.794;-1.066;2022-11-09T00:14:14;18.77;;;3.08;;
35558;SDS011;21661;50.794;-1.066;2022-11-09T00:16:40;17.25;;;3.67;;
35558;SDS011;21661;50.794;-1.066;2022-11-09T00:19:05;24.55;;;3.20;;
35558;SDS011;21661;50.794;-1.066;2022-11-09T00:21:31;24.20;;;3.90;;
35558;SDS011;21661;50.794;-1.066;2022-11-09T00:23:57;24.45;;;3.10;;
35558;SDS011;21661;50.794;-1.066;2022-11-09T00:26:22;31.08;;;4.00;;
35558;SDS011;21661;50.794;-1.066;2022-11-09T00:28:48;30.45;;;4.70;;
35558;SDS011;21661;50.794;-1.066;2022-11-09T00:31:16;26.60;;;3.47;;
35558;SDS011;21661;50.794;-1.066;2022-11-09T00:33:46;33.60;;;4.95;;
35558;SDS011;21661;50.794;-1.066;2022-11-09T00:36:16;21.67;;;3.70;;
35558;SDS011;21661;50.794;-1.066;2022-11-09T00:38:48;23.98;;;4.28;;
35558;SDS011;21661;50.794;-1.066;2022-11-09T00:41:15;30.73;;;4.28;;
35558;SDS011;21661;50.794;-1.066;2022-11-09T00:43:41;28.23;;;3.35;;
35558;SDS011;21661;50.794;-1.066;2022-11-09T00:46:06;27.90;;;4.00;;
35558;SDS011;21661;50.794;-1.066;2022-11-09T00:48:32;31.45;;;3.92;;
35558;SDS011;21661;50.794;-1.066;2022-11-09T00:50:58;22.73;;;3.47;;
35558;SDS011;21661;50.794;-1.066;2022-11-09T00:53:24;22.75;;;3.83;;
35558;SDS011;21661;50.794;-1.066;2022-11-09T00:55:57;19.95;;;4.30;;
35558;SDS011;21661;50.794;-1.066;2022-11-09T00:58:26;24.30;;;3.42;;
35558;SDS011;21661;50.794;-1.066;2022-11-09T01:00:53;28.02;;;3.70;;
35558;SDS011;21661;50.794;-1.066;2022-11-09T01:03:20;20.15;;;3.53;;
35558;SDS011;21661;50.794;-1.066;2022-11-09T01:05:47;29.83;;;3.78;;
35558;SDS011;21661;50.794;-1.066;2022-11-09T01:08:12;20.98;;;3.30;;
35558;SDS011;21661;50.794;-1.066;2022-11-09T01:10:39;23.73;;;2.72;;
35558;SDS011;21661;50.794;-1.066;2022-11-09T01:13:06;21.42;;;3.30;;
35558;SDS011;21661;50.794;-1.066;2022-11-09T01:15:32;29.00;;;4.05;;
35558;SDS011;21661;50.794;-1.066;2022-11-09T01:17:57;26.20;;;3.40;;
35558;SDS011;21661;50.794;-1.066;2022-11-09T01:20:23;24.58;;;3.70;;
35558;SDS011;21661;50.794;-1.066;2022-11-09T01:22:49;24.52;;;4.20;;
35558;SDS011;21661;50.794;-1.066;2022-11-09T01:25:14;24.77;;;4.28;;
35558;SDS011;21661;50.794;-1.066;2022-11-09T01:27:40;22.13;;;3.60;;
35558;SDS011;21661;50.794;-1.066;2022-11-09T01:30:06;15.48;;;1.60;;
35558;SDS011;21661;50.794;-1.066;2022-11-09T01:32:32;17.00;;;2.30;;
35558;SDS011;21661;50.794;-1.066;2022-11-09T01:34:57;25.45;;;3.38;;
35558;SDS011;21661;50.794;-1.066;2022-11-09T01:37:23;21.05;;;4.00;;
35558;SDS011;21661;50.794;-1.066;2022-11-09T01:39:48;32.58;;;3.58;;
35558;SDS011;21661;50.794;-1.066;2022-11-09T01:42:14;22.00;;;2.45;;
35558;SDS011;21661;50.794;-1.066;2022-11-09T01:44:47;19.85;;;3.60;;
35558;SDS011;21661;50.794;-1.066;2022-11-09T01:47:14;18.38;;;2.20;;
35558;SDS011;21661;50.794;-1.066;2022-11-09T01:49:54;15.18;;;2.22;;
35558;SDS011;21661;50.794;-1.066;2022-11-09T01:52:31;17.23;;;2.78;;
35558;SDS011;21661;50.794;-1.066;2022-11-09T01:55:13;10.15;;;1.58;;
35558;SDS011;21661;50.794;-1.066;2022-11-09T01:57:45;14.40;;;1.88;;
35558;SDS011;21661;50.794;-1.066;2022-11-09T02:00:21;12.00;;;1.57;;
35558;SDS011;21661;50.794;-1.066;2022-11-09T02:02:55;13.30;;;1.88;;
35558;SDS011;21661;50.794;-1.066;2022-11-09T02:05:30;13.18;;;1.50;;
35558;SDS011;21661;50.794;-1.066;2022-11-09T02:07:58;20.40;;;3.35;;
35558;SDS011;21661;50.794;-1.066;2022-11-09T02:12:58;10.93;;;1.23;;
35558;SDS011;21661;50.794;-1.066;2022-11-09T02:15:25;8.73;;;1.40;;
35558;SDS011;21661;50.794;-1.066;2022-11-09T02:17:53;7.40;;;1.08;;
35558;SDS011;21661;50.794;-1.066;2022-11-09T02:20:20;10.30;;;1.27;;
35558;SDS011;21661;50.794;-1.066;2022-11-09T02:22:46;18.17;;;2.28;;
35558;SDS011;21661;50.794;-1.066;2022-11-09T02:25:13;13.32;;;1.85;;
35558;SDS011;21661;50.794;-1.066;2022-11-09T02:27:40;17.10;;;2.50;;
35558;SDS011;21661;50.794;-1.066;2022-11-09T02:30:07;15.48;;;2.17;;
35558;SDS011;21661;50.794;-1.066;2022-11-09T02:32:33;25.17;;;2.40;;
35558;SDS011;21661;50.794;-1.066;2022-11-09T02:34:59;16.98;;;2.25;;
35558;SDS011;21661;50.794;-1.066;2022-11-09T02:37:26;12.30;;;2.50;;
35558;SDS011;21661;50.794;-1.066;2022-11-09T02:39:52;12.23;;;2.13;;
35558;SDS011;21661;50.794;-1.066;2022-11-09T02:42:19;23.60;;;2.60;;
35558;SDS011;21661;50.794;-1.066;2022-11-09T02:44:46;15.93;;;2.20;;
35558;SDS011;21661;50.794;-1.066;2022-11-09T02:47:15;23.70;;;2.88;;
35558;SDS011;21661;50.794;-1.066;2022-11-09T02:49:41;18.02;;;2.95;;
35558;SDS011;21661;50.794;-1.066;2022-11-09T02:52:06;16.05;;;1.92;;
35558;SDS011;21661;50.794;-1.066;2022-11-09T02:54:32;14.23;;;2.22;;
35558;SDS011;21661;50.794;-1.066;2022-11-09T02:56:58;14.57;;;2.20;;
35558;SDS011;21661;50.794;-1.066;2022-11-09T02:59:23;14.38;;;2.10;;
35558;SDS011;21661;50.794;-1.066;2022-11-09T03:01:49;12.93;;;2.20;;
35558;SDS011;21661;50.794;-1.066;2022-11-09T03:04:14;17.67;;;2.75;;
35558;SDS011;21661;50.794;-1.066;2022-11-09T03:06:40;19.83;;;2.33;;
35558;SDS011;21661;50.794;-1.066;2022-11-09T03:09:06;16.88;;;1.90;;
35558;SDS011;21661;50.794;-1.066;2022-11-09T03:11:34;16.75;;;2.55;;
35558;SDS011;21661;50.794;-1.066;2022-11-09T03:13:59;14.45;;;2.03;;
35558;SDS011;21661;50.794;-1.066;2022-11-09T03:16:25;16.13;;;2.38;;
35558;SDS011;21661;50.794;-1.066;2022-11-09T03:18:51;13.90;;;1.42;;
35558;SDS011;21661;50.794;-1.066;2022-11-09T03:21:17;17.40;;;2.90;;
35558;SDS011;21661;50.794;-1.066;2022-11-09T03:23:43;24.70;;;3.38;;
35558;SDS011;21661;50.794;-1.066;2022-11-09T03:26:09;12.30;;;1.70;;
35558;SDS011;21661;50.794;-1.066;2022-11-09T03:28:35;11.13;;;1.67;;
35558;SDS011;21661;50.794;-1.066;2022-11-09T03:31:00;18.67;;;3.00;;
35558;SDS011;21661;50.794;-1.066;2022-11-09T03:33:26;15.85;;;2.42;;
35558;SDS011;21661;50.794;-1.066;2022-11-09T03:35:51;22.35;;;2.75;;
35558;SDS011;21661;50.794;-1.066;2022-11-09T03:38:17;15.55;;;2.25;;
35558;SDS011;21661;50.794;-1.066;2022-11-09T03:40:42;19.75;;;1.83;;
35558;SDS011;21661;50.794;-1.066;2022-11-09T03:43:08;12.35;;;2.22;;
35558;SDS011;21661;50.794;-1.066;2022-11-09T03:45:34;20.17;;;2.58;;
35558;SDS011;21661;50.794;-1.066;2022-11-09T03:47:59;14.70;;;2.72;;
35558;SDS011;21661;50.794;-1.066;2022-11-09T03:50:25;20.98;;;2.70;;
35558;SDS011;21661;50.794;-1.066;2022-11-09T03:52:52;21.55;;;2.53;;
35558;SDS011;21661;50.794;-1.066;2022-11-09T03:55:18;20.10;;;2.70;;
35558;SDS011;21661;50.794;-1.066;2022-11-09T03:57:44;10.80;;;1.83;;
35558;SDS011;21661;50.794;-1.066;2022-11-09T04:00:10;18.20;;;2.30;;
35558;SDS011;21661;50.794;-1.066;2022-11-09T04:02:38;15.98;;;2.00;;
35558;SDS011;21661;50.794;-1.066;2022-11-09T04:05:04;14.88;;;2.25;;
35558;SDS011;21661;50.794;-1.066;2022-11-09T04:07:30;17.10;;;2.42;;
35558;SDS011;21661;50.794;-1.066;2022-11-09T04:09:56;18.70;;;3.47;;
35558;SDS011;21661;50.794;-1.066;2022-11-09T04:12:22;16.20;;;1.92;;
35558;SDS011;21661;50.794;-1.066;2022-11-09T04:14:48;15.55;;;3.22;;
35558;SDS011;21661;50.794;-1.066;2022-11-09T04:17:13;13.13;;;1.92;;
35558;SDS011;21661;50.794;-1.066;2022-11-09T04:19:39;13.77;;;2.40;;
35558;SDS011;21661;50.794;-1.066;2022-11-09T04:22:05;12.52;;;1.83;;
35558;SDS011;21661;50.794;-1.066;2022-11-09T04:24:31;11.45;;;1.73;;
35558;SDS011;21661;50.794;-1.066;2022-11-09T04:26:56;10.75;;;1.90;;
35558;SDS011;21661;50.794;-1.066;2022-11-09T04:29:22;12.43;;;2.45;;
35558;SDS011;21661;50.794;-1.066;2022-11-09T04:31:48;13.98;;;1.92;;
35558;SDS011;21661;50.794;-1.066;2022-11-09T04:34:14;7.18;;;1.25;;
35558;SDS011;21661;50.794;-1.066;2022-11-09T04:36:40;11.07;;;1.90;;
35558;SDS011;21661;50.794;-1.066;2022-11-09T04:39:06;11.45;;;1.58;;
35558;SDS011;21661;50.794;-1.066;2022-11-09T04:41:31;9.38;;;2.10;;
35558;SDS011;21661;50.794;-1.066;2022-11-09T04:43:57;10.32;;;1.40;;
35558;SDS011;21661;50.794;-1.066;2022-11-09T04:46:22;7.05;;;1.10;;
35558;SDS011;21661;50.794;-1.066;2022-11-09T04:48:48;13.88;;;2.03;;
35558;SDS011;21661;50.794;-1.066;2022-11-09T04:51:14;8.18;;;0.98;;
35558;SDS011;21661;50.794;-1.066;2022-11-09T04:53:39;10.75;;;1.48;;
35558;SDS011;21661;50.794;-1.066;2022-11-09T04:56:06;8.52;;;1.15;;
35558;SDS011;21661;50.794;-1.066;2022-11-09T04:58:32;10.10;;;1.27;;
35558;SDS011;21661;50.794;-1.066;2022-11-09T05:01:02;11.25;;;1.73;;
35558;SDS011;21661;50.794;-1.066;2022-11-09T05:05:54;9.80;;;1.50;;
35558;SDS011;21661;50.794;-1.066;2022-11-09T05:08:20;16.77;;;1.98;;
35558;SDS011;21661;50.794;-1.066;2022-11-09T05:10:45;16.27;;;2.05;;
35558;SDS011;21661;50.794;-1.066;2022-11-09T05:13:11;29.50;;;2.78;;
35558;SDS011;21661;50.794;-1.066;2022-11-09T05:15:38;20.08;;;3.13;;
35558;SDS011;21661;50.794;-1.066;2022-11-09T05:18:04;14.55;;;2.90;;
35558;SDS011;21661;50.794;-1.066;2022-11-09T05:20:31;20.95;;;2.75;;
35558;SDS011;21661;50.794;-1.066;2022-11-09T05:22:58;18.85;;;2.90;;
35558;SDS011;21661;50.794;-1.066;2022-11-09T05:25:42;27.67;;;2.75;;
35558;SDS011;21661;50.794;-1.066;2022-11-09T05:28:08;17.48;;;2.78;;
35558;SDS011;21661;50.794;-1.066;2022-11-09T05:30:34;13.10;;;1.77;;
35558;SDS011;21661;50.794;-1.066;2022-11-09T05:33:00;19.05;;;2.10;;
35558;SDS011;21661;50.794;-1.066;2022-11-09T05:35:25;17.75;;;2.40;;
35558;SDS011;21661;50.794;-1.066;2022-11-09T05:37:51;13.40;;;2.25;;
35558;SDS011;21661;50.794;-1.066;2022-11-09T05:40:17;14.60;;;2.13;;
35558;SDS011;21661;50.794;-1.066;2022-11-09T05:42:43;16.58;;;2.85;;
35558;SDS011;21661;50.794;-1.066;2022-11-09T05:45:11;18.70;;;2.47;;
35558;SDS011;21661;50.794;-1.066;2022-11-09T05:47:39;15.23;;;2.33;;
35558;SDS011;21661;50.794;-1.066;2022-11-09T05:50:06;20.63;;;2.95;;
35558;SDS011;21661;50.794;-1.066;2022-11-09T05:52:34;10.80;;;1.80;;
35558;SDS011;21661;50.794;-1.066;2022-11-09T05:54:59;15.65;;;1.90;;
35558;SDS011;21661;50.794;-1.066;2022-11-09T05:57:26;17.58;;;2.40;;
35558;SDS011;21661;50.794;-1.066;2022-11-09T05:59:51;10.50;;;1.75;;
35558;SDS011;21661;50.794;-1.066;2022-11-09T06:02:17;13.77;;;1.85;;
35558;SDS011;21661;50.794;-1.066;2022-11-09T06:04:43;8.35;;;1.25;;
35558;SDS011;21661;50.794;-1.066;2022-11-09T06:07:08;13.20;;;1.83;;
35558;SDS011;21661;50.794;-1.066;2022-11-09T06:09:34;8.77;;;1.70;;
35558;SDS011;21661;50.794;-1.066;2022-11-09T06:11:59;9.60;;;1.05;;
35558;SDS011;21661;50.794;-1.066;2022-11-09T06:14:25;12.57;;;1.35;;
35558;SDS011;21661;50.794;-1.066;2022-11-09T06:16:50;12.98;;;1.23;;
35558;SDS011;21661;50.794;-1.066;2022-11-09T06:19:16;12.90;;;1.75;;
35558;SDS011;21661;50.794;-1.066;2022-11-09T06:21:42;19.00;;;2.38;;
35558;SDS011;21661;50.794;-1.066;2022-11-09T06:24:08;11.15;;;1.17;;
35558;SDS011;21661;50.794;-1.066;2022-11-09T06:26:33;9.48;;;1.40;;
35558;SDS011;21661;50.794;-1.066;2022-11-09T06:28:59;14.40;;;1.30;;
35558;SDS011;21661;50.794;-1.066;2022-11-09T06:31:25;11.93;;;1.52;;
35558;SDS011;21661;50.794;-1.066;2022-11-09T06:33:51;7.82;;;1.70;;
35558;SDS011;21661;50.794;-1.066;2022-11-09T06:36:16;12.80;;;1.80;;
35558;SDS011;21661;50.794;-1.066;2022-11-09T06:38:42;23.63;;;1.85;;
35558;SDS011;21661;50.794;-1.066;2022-11-09T06:41:08;15.10;;;2.40;;
35558;SDS011;21661;50.794;-1.066;2022-11-09T06:43:34;15.50;;;1.83;;
35558;SDS011;21661;50.794;-1.066;2022-11-09T06:46:03;14.50;;;1.88;;
35558;SDS011;21661;50.794;-1.066;2022-11-09T06:48:29;17.85;;;2.20;;
35558;SDS011;21661;50.794;-1.066;2022-11-09T06:50:58;11.63;;;2.70;;
35558;SDS011;21661;50.794;-1.066;2022-11-09T06:53:24;10.90;;;1.77;;
35558;SDS011;21661;50.794;-1.066;2022-11-09T06:55:55;10.40;;;1.52;;
35558;SDS011;21661;50.794;-1.066;2022-11-09T06:58:22;11.43;;;1.50;;
35558;SDS011;21661;50.794;-1.066;2022-11-09T07:00:48;11.35;;;1.40;;
35558;SDS011;21661;50.794;-1.066;2022-11-09T07:03:14;13.80;;;2.45;;
35558;SDS011;21661;50.794;-1.066;2022-11-09T07:05:41;22.13;;;3.00;;
35558;SDS011;21661;50.794;-1.066;2022-11-09T07:08:07;12.77;;;1.73;;
35558;SDS011;21661;50.794;-1.066;2022-11-09T07:10:33;15.07;;;2.15;;
35558;SDS011;21661;50.794;-1.066;2022-11-09T07:12:59;17.23;;;2.20;;
35558;SDS011;21661;50.794;-1.066;2022-11-09T07:15:27;18.08;;;3.08;;
35558;SDS011;21661;50.794;-1.066;2022-11-09T07:17:55;15.15;;;2.00;;
35558;SDS011;21661;50.794;-1.066;2022-11-09T07:20:21;12.55;;;1.67;;
35558;SDS011;21661;50.794;-1.066;2022-11-09T07:22:50;22.17;;;2.53;;
35558;SDS011;21661;50.794;-1.066;2022-11-09T07:25:16;13.63;;;2.05;;
35558;SDS011;21661;50.794;-1.066;2022-11-09T07:27:42;11.40;;;1.50;;
35558;SDS011;21661;50.794;-1.066;2022-11-09T07:30:08;8.35;;;1.20;;
35558;SDS011;21661;50.794;-1.066;2022-11-09T07:32:35;10.80;;;1.85;;
35558;SDS011;21661;50.794;-1.066;2022-11-09T07:35:02;9.32;;;1.20;;
35558;SDS011;21661;50.794;-1.066;2022-11-09T07:37:28;4.28;;;0.95;;
35558;SDS011;21661;50.794;-1.066;2022-11-09T07:39:54;7.20;;;1.00;;
35558;SDS011;21661;50.794;-1.066;2022-11-09T07:42:20;7.32;;;1.67;;
35558;SDS011;21661;50.794;-1.066;2022-11-09T07:44:45;7.30;;;1.20;;
35558;SDS011;21661;50.794;-1.066;2022-11-09T07:47:11;6.70;;;0.90;;
35558;SDS011;21661;50.794;-1.066;2022-11-09T07:49:36;10.25;;;1.30;;
35558;SDS011;21661;50.794;-1.066;2022-11-09T07:52:02;6.45;;;0.82;;
35558;SDS011;21661;50.794;-1.066;2022-11-09T07:54:28;10.82;;;1.48;;
35558;SDS011;21661;50.794;-1.066;2022-11-09T07:56:53;5.97;;;0.98;;
35558;SDS011;21661;50.794;-1.066;2022-11-09T07:59:19;9.63;;;1.15;;
35558;SDS011;21661;50.794;-1.066;2022-11-09T08:01:45;10.05;;;1.20;;
35558;SDS011;21661;50.794;-1.066;2022-11-09T08:04:11;7.90;;;1.33;;
35558;SDS011;21661;50.794;-1.066;2022-11-09T08:06:36;10.00;;;1.13;;
35558;SDS011;21661;50.794;-1.066;2022-11-09T08:09:02;12.52;;;1.60;;
35558;SDS011;21661;50.794;-1.066;2022-11-09T08:11:28;9.02;;;1.63;;
35558;SDS011;21661;50.794;-1.066;2022-11-09T08:13:54;13.43;;;2.15;;
35558;SDS011;21661;50.794;-1.066;2022-11-09T08:16:20;7.50;;;0.98;;
35558;SDS011;21661;50.794;-1.066;2022-11-09T08:18:47;10.45;;;1.10;;
35558;SDS011;21661;50.794;-1.066;2022-11-09T08:21:14;11.10;;;1.40;;
35558;SDS011;21661;50.794;-1.066;2022-11-09T08:23:39;9.05;;;1.45;;
35558;SDS011;21661;50.794;-1.066;2022-11-09T08:26:05;8.60;;;1.77;;
35558;SDS011;21661;50.794;-1.066;2022-11-09T08:28:31;7.45;;;1.55;;
35558;SDS011;21661;50.794;-1.066;2022-11-09T08:31:01;9.75;;;1.83;;
35558;SDS011;21661;50.794;-1.066;2022-11-09T08:33:31;11.82;;;2.58;;
35558;SDS011;21661;50.794;-1.066;2022-11-09T08:35:59;11.85;;;1.80;;
35558;SDS011;21661;50.794;-1.066;2022-11-09T08:38:25;7.07;;;1.10;;
35558;SDS011;21661;50.794;-1.066;2022-11-09T08:40:55;13.07;;;2.78;;
35558;SDS011;21661;50.794;-1.066;2022-11-09T08:45:47;11.63;;;1.88;;
35558;SDS011;21661;50.794;-1.066;2022-11-09T08:48:13;6.45;;;1.20;;
35558;SDS011;21661;50.794;-1.066;2022-11-09T08:50:38;9.23;;;1.30;;
35558;SDS011;21661;50.794;-1.066;2022-11-09T08:53:04;10.90;;;1.95;;
35558;SDS011;21661;50.794;-1.066;2022-11-09T08:55:31;7.90;;;1.10;;
35558;SDS011;21661;50.794;-1.066;2022-11-09T08:57:58;9.82;;;1.55;;
35558;SDS011;21661;50.794;-1.066;2022-11-09T09:00:25;7.10;;;1.60;;
35558;SDS011;21661;50.794;-1.066;2022-11-09T09:02:51;8.38;;;1.02;;
35558;SDS011;21661;50.794;-1.066;2022-11-09T09:05:17;10.48;;;1.52;;
35558;SDS011;21661;50.794;-1.066;2022-11-09T09:07:43;10.32;;;1.40;;
35558;SDS011;21661;50.794;-1.066;2022-11-09T09:10:09;7.40;;;1.10;;
35558;SDS011;21661;50.794;-1.066;2022-11-09T09:12:35;11.90;;;1.95;;
35558;SDS011;21661;50.794;-1.066;2022-11-09T09:15:01;10.23;;;1.98;;
35558;SDS011;21661;50.794;-1.066;2022-11-09T09:17:26;9.38;;;1.27;;
35558;SDS011;21661;50.794;-1.066;2022-11-09T09:19:52;8.55;;;1.10;;
35558;SDS011;21661;50.794;-1.066;2022-11-09T09:22:18;14.50;;;1.52;;
35558;SDS011;21661;50.794;-1.066;2022-11-09T09:24:44;8.73;;;1.77;;
35558;SDS011;21661;50.794;-1.066;2022-11-09T09:27:09;13.02;;;1.65;;
35558;SDS011;21661;50.794;-1.066;2022-11-09T09:29:35;9.60;;;1.40;;
35558;SDS011;21661;50.794;-1.066;2022-11-09T09:32:01;12.27;;;1.98;;
35558;SDS011;21661;50.794;-1.066;2022-11-09T09:34:26;9.60;;;1.13;;
35558;SDS011;21661;50.794;-1.066;2022-11-09T09:36:52;11.65;;;1.55;;
35558;SDS011;21661;50.794;-1.066;2022-11-09T09:39:18;9.18;;;1.27;;
35558;SDS011;21661;50.794;-1.066;2022-11-09T09:44:50;10.40;;;1.67;;
35558;SDS011;21661;50.794;-1.066;2022-11-09T09:47:26;9.38;;;1.65;;
35558;SDS011;21661;50.794;-1.066;2022-11-09T09:50:02;8.48;;;1.55;;
35558;SDS011;21661;50.794;-1.066;2022-11-09T09:58:04;19.08;;;1.63;;
35558;SDS011;21661;50.794;-1.066;2022-11-09T10:00:55;13.50;;;2.10;;
35558;SDS011;21661;50.794;-1.066;2022-11-09T10:03:41;9.93;;;1.42;;
35558;SDS011;21661;50.794;-1.066;2022-11-09T10:14:53;17.77;;;1.92;;
35558;SDS011;21661;50.794;-1.066;2022-11-09T10:17:29;13.63;;;2.25;;
35558;SDS011;21661;50.794;-1.066;2022-11-09T10:26:03;14.05;;;1.73;;
35558;SDS011;21661;50.794;-1.066;2022-11-09T10:28:40;22.88;;;2.20;;
35558;SDS011;21661;50.794;-1.066;2022-11-09T10:31:12;18.67;;;2.05;;
35558;SDS011;21661;50.794;-1.066;2022-11-09T10:33:41;12.93;;;2.15;;
35558;SDS011;21661;50.794;-1.066;2022-11-09T10:36:19;10.40;;;1.70;;
35558;SDS011;21661;50.794;-1.066;2022-11-09T10:38:49;20.15;;;2.72;;
35558;SDS011;21661;50.794;-1.066;2022-11-09T10:41:23;15.95;;;2.70;;
35558;SDS011;21661;50.794;-1.066;2022-11-09T10:43:55;12.50;;;2.10;;
35558;SDS011;21661;50.794;-1.066;2022-11-09T10:46:21;10.73;;;2.17;;
35558;SDS011;21661;50.794;-1.066;2022-11-09T10:48:47;14.98;;;2.17;;
35558;SDS011;21661;50.794;-1.066;2022-11-09T10:51:32;13.93;;;1.58;;
35558;SDS011;21661;50.794;-1.066;2022-11-09T10:54:23;12.20;;;1.42;;
35558;SDS011;21661;50.794;-1.066;2022-11-09T10:56:51;11.48;;;1.95;;
35558;SDS011;21661;50.794;-1.066;2022-11-09T11:04:49;16.38;;;2.35;;
35558;SDS011;21661;50.794;-1.066;2022-11-09T11:07:30;12.52;;;2.00;;
35558;SDS011;21661;50.794;-1.066;2022-11-09T11:10:17;11.27;;;1.70;;
35558;SDS011;21661;50.794;-1.066;2022-11-09T11:13:18;15.77;;;2.22;;
35558;SDS011;21661;50.794;-1.066;2022-11-09T11:15:44;14.95;;;2.13;;
35558;SDS011;21661;50.794;-1.066;2022-11-09T11:18:20;15.35;;;2.38;;
35558;SDS011;21661;50.794;-1.066;2022-11-09T11:21:33;11.93;;;2.22;;
35558;SDS011;21661;50.794;-1.066;2022-11-09T11:23:39;10.57;;;1.52;;
35558;SDS011;21661;50.794;-1.066;2022-11-09T11:26:11;8.55;;;1.35;;
35558;SDS011;21661;50.794;-1.066;2022-11-09T11:28:59;21.20;;;1.98;;
35558;SDS011;21661;50.794;-1.066;2022-11-09T11:31:28;10.70;;;1.63;;
35558;SDS011;21661;50.794;-1.066;2022-11-09T11:33:54;11.93;;;1.70;;
35558;SDS011;21661;50.794;-1.066;2022-11-09T11:44:50;8.52;;;1.90;;
35558;SDS011;21661;50.794;-1.066;2022-11-09T11:47:24;12.35;;;1.58;;
35558;SDS011;21661;50.794;-1.066;2022-11-09T11:52:47;8.63;;;1.40;;
35558;SDS011;21661;50.794;-1.066;2022-11-09T12:20:05;13.35;;;2.05;;
35558;SDS011;21661;50.794;-1.066;2022-11-09T12:25:26;13.02;;;1.65;;
35558;SDS011;21661;50.794;-1.066;2022-11-09T12:30:51;12.98;;;1.50;;
35558;SDS011;21661;50.794;-1.066;2022-11-09T12:36:32;11.48;;;1.85;;
35558;SDS011;21661;50.794;-1.066;2022-11-09T12:42:17;11.15;;;1.60;;
35558;SDS011;21661;50.794;-1.066;2022-11-09T12:44:54;15.82;;;2.20;;
35558;SDS011;21661;50.794;-1.066;2022-11-09T12:47:31;12.48;;;2.47;;
35558;SDS011;21661;50.794;-1.066;2022-11-09T12:50:04;13.75;;;1.98;;
35558;SDS011;21661;50.794;-1.066;2022-11-09T12:52:30;13.27;;;2.30;;
35558;SDS011;21661;50.794;-1.066;2022-11-09T12:54:56;14.57;;;1.98;;
35558;SDS011;21661;50.794;-1.066;2022-11-09T12:57:25;9.25;;;2.45;;
35558;SDS011;21661;50.794;-1.066;2022-11-09T12:59:57;6.90;;;1.40;;
35558;SDS011;21661;50.794;-1.066;2022-11-09T13:04:59;15.13;;;2.22;;
35558;SDS011;21661;50.794;-1.066;2022-11-09T13:10:30;15.77;;;2.47;;
35558;SDS011;21661;50.794;-1.066;2022-11-09T13:13:15;12.35;;;1.80;;
35558;SDS011;21661;50.794;-1.066;2022-11-09T13:20:54;14.13;;;2.33;;
35558;SDS011;21661;50.794;-1.066;2022-11-09T13:25:56;10.98;;;2.40;;
35558;SDS011;21661;50.794;-1.066;2022-11-09T13:30:56;17.98;;;2.65;;
35558;SDS011;21661;50.794;-1.066;2022-11-09T13:33:26;9.48;;;1.70;;
35558;SDS011;21661;50.794;-1.066;2022-11-09T13:35:56;13.68;;;2.33;;
35558;SDS011;21661;50.794;-1.066;2022-11-09T13:38:27;13.35;;;2.20;;
35558;SDS011;21661;50.794;-1.066;2022-11-09T13:40:54;17.67;;;2.35;;
35558;SDS011;21661;50.794;-1.066;2022-11-09T13:43:29;17.90;;;2.55;;
35558;SDS011;21661;50.794;-1.066;2022-11-09T13:46:42;16.20;;;2.38;;
35558;SDS011;21661;50.794;-1.066;2022-11-09T13:48:51;14.40;;;2.63;;
35558;SDS011;21661;50.794;-1.066;2022-11-09T13:51:19;15.13;;;3.13;;
35558;SDS011;21661;50.794;-1.066;2022-11-09T13:54:43;17.60;;;2.20;;
35558;SDS011;21661;50.794;-1.066;2022-11-09T13:56:52;14.98;;;2.38;;
35558;SDS011;21661;50.794;-1.066;2022-11-09T13:59:25;18.05;;;2.92;;
35558;SDS011;21661;50.794;-1.066;2022-11-09T14:01:59;15.48;;;2.28;;
35558;SDS011;21661;50.794;-1.066;2022-11-09T14:04:30;12.27;;;2.28;;
35558;SDS011;21661;50.794;-1.066;2022-11-09T14:07:08;20.38;;;3.38;;
35558;SDS011;21661;50.794;-1.066;2022-11-09T14:21:37;14.27;;;1.70;;
35558;SDS011;21661;50.794;-1.066;2022-11-09T14:24:15;16.35;;;2.10;;
35558;SDS011;21661;50.794;-1.066;2022-11-09T14:29:33;13.93;;;2.25;;
35558;SDS011;21661;50.794;-1.066;2022-11-09T14:32:00;9.25;;;1.80;;
35558;SDS011;21661;50.794;-1.066;2022-11-09T14:34:42;14.10;;;1.85;;
35558;SDS011;21661;50.794;-1.066;2022-11-09T14:37:09;13.23;;;2.15;;
35558;SDS011;21661;50.794;-1.066;2022-11-09T14:39:37;10.00;;;2.40;;
35558;SDS011;21661;50.794;-1.066;2022-11-09T14:42:04;13.25;;;2.15;;
35558;SDS011;21661;50.794;-1.066;2022-11-09T14:45:04;11.50;;;2.55;;
35558;SDS011;21661;50.794;-1.066;2022-11-09T14:47:27;12.63;;;1.95;;
35558;SDS011;21661;50.794;-1.066;2022-11-09T14:49:56;14.15;;;2.40;;
35558;SDS011;21661;50.794;-1.066;2022-11-09T14:52:25;11.77;;;2.42;;
35558;SDS011;21661;50.794;-1.066;2022-11-09T14:54:52;17.38;;;1.95;;
35558;SDS011;21661;50.794;-1.066;2022-11-09T14:57:18;15.88;;;2.03;;
35558;SDS011;21661;50.794;-1.066;2022-11-09T14:59:46;10.20;;;1.88;;
35558;SDS011;21661;50.794;-1.066;2022-11-09T15:02:13;15.68;;;1.92;;
35558;SDS011;21661;50.794;-1.066;2022-11-09T15:05:00;11.48;;;2.05;;
35558;SDS011;21661;50.794;-1.066;2022-11-09T15:07:34;15.23;;;2.15;;
35558;SDS011;21661;50.794;-1.066;2022-11-09T15:10:03;11.63;;;2.35;;
35558;SDS011;21661;50.794;-1.066;2022-11-09T15:12:46;11.23;;;1.90;;
35558;SDS011;21661;50.794;-1.066;2022-11-09T15:15:18;12.15;;;2.53;;
35558;SDS011;21661;50.794;-1.066;2022-11-09T15:17:46;16.08;;;2.38;;
35558;SDS011;21661;50.794;-1.066;2022-11-09T15:22:52;13.23;;;1.80;;
35558;SDS011;21661;50.794;-1.066;2022-11-09T15:27:56;16.75;;;2.20;;
35558;SDS011;21661;50.794;-1.066;2022-11-09T15:30:36;11.23;;;2.10;;
35558;SDS011;21661;50.794;-1.066;2022-11-09T15:35:49;15.80;;;2.35;;
35558;SDS011;21661;50.794;-1.066;2022-11-09T15:38:34;14.82;;;2.53;;
35558;SDS011;21661;50.794;-1.066;2022-11-09T15:41:09;12.07;;;2.80;;
35558;SDS011;21661;50.794;-1.066;2022-11-09T15:43:42;18.63;;;3.03;;
35558;SDS011;21661;50.794;-1.066;2022-11-09T15:46:18;12.68;;;2.42;;
35558;SDS011;21661;50.794;-1.066;2022-11-09T15:48:49;19.70;;;2.70;;
35558;SDS011;21661;50.794;-1.066;2022-11-09T15:51:15;17.88;;;2.67;;
35558;SDS011;21661;50.794;-1.066;2022-11-09T15:53:41;15.05;;;2.50;;
35558;SDS011;21661;50.794;-1.066;2022-11-09T15:56:17;17.17;;;3.67;;
35558;SDS011;21661;50.794;-1.066;2022-11-09T15:58:45;11.45;;;2.97;;
35558;SDS011;21661;50.794;-1.066;2022-11-09T16:01:12;16.15;;;3.38;;
35558;SDS011;21661;50.794;-1.066;2022-11-09T16:03:38;16.10;;;2.50;;
35558;SDS011;21661;50.794;-1.066;2022-11-09T16:06:04;19.17;;;3.13;;
35558;SDS011;21661;50.794;-1.066;2022-11-09T16:08:29;11.93;;;2.65;;
35558;SDS011;21661;50.794;-1.066;2022-11-09T16:10:55;16.90;;;3.50;;
35558;SDS011;21661;50.794;-1.066;2022-11-09T16:13:20;18.83;;;3.95;;
35558;SDS011;21661;50.794;-1.066;2022-11-09T16:15:46;16.52;;;3.00;;
35558;SDS011;21661;50.794;-1.066;2022-11-09T16:18:12;18.73;;;3.63;;
35558;SDS011;21661;50.794;-1.066;2022-11-09T16:20:37;19.75;;;2.47;;
35558;SDS011;21661;50.794;-1.066;2022-11-09T16:23:04;16.33;;;2.58;;
35558;SDS011;21661;50.794;-1.066;2022-11-09T16:25:29;18.95;;;2.50;;
35558;SDS011;21661;50.794;-1.066;2022-11-09T16:27:55;19.38;;;2.85;;
35558;SDS011;21661;50.794;-1.066;2022-11-09T16:30:23;20.77;;;3.90;;
35558;SDS011;21661;50.794;-1.066;2022-11-09T16:32:49;16.17;;;4.40;;
35558;SDS011;21661;50.794;-1.066;2022-11-09T16:35:14;17.73;;;5.68;;